Connexion S'enregistrer

Connexion à votre compte

Identifiant
Mot de passe
Maintenir la connexion active sur ce site

Créer un compte

Pour valider ce formulaire, vous devez remplir tous les champs.
Nom
Identifiant
Mot de passe
Répétez le mot de passe
Adresse e-mail
Répétez l'adresse e-mail

METAR/TAF de Chambéry

[source: ADDS]
METAR
LFLB 100200Z AUTO 00000KT CAVOK 16/13 Q1016 NOSIG =
TAF LFLB 092300Z 1000/1024 VRB04KT CAVOK BECMG 1010/1012 SCT053TCU TEMPO 1015/1024 VRB15G25KT 4000 SHRA SCT053TCU BKN100 PROB40 TEMPO 1015/1019 VRB25G45KT 2000 TSRA BKN050CB PROB30 TEMPO 1015/1017 1000 TSGR
TAF
TAF LFLB 092300Z 1000/1024 VRB04KT CAVOK BECMG 1010/1012 SCT053TCU TEMPO 1015/1024 VRB15G25KT 4000 SHRA SCT053TCU BKN100 PROB40 TEMPO 1015/1019 VRB25G45KT 2000 TSRA BKN050CB PROB30 TEMPO 1015/1017 1000 TSGR =
SR / SS: 03:57 / 19:26 UTC (Lever/Coucher du soleil le 2020-07-10)

 

Webcam de l'Aéroclub - Parking Lima et SW (réactualisation : 5min)

Cliquer ici pour une animation sur les 3 dernières heures / Cliquer sur l'image pour l'agrandir dans une nouvelle fenêtre

 

Webcam de l'Aéroclub - Manche à air et WA (réactualisation : 5min)

Cliquer ici pour une animation sur les 3 dernières heures / Cliquer sur l'image pour l'agrandir dans une nouvelle fenêtre

 

JSN Boot template designed by JoomlaShine.com